sensor_id;sensor_type;location;lat;lon;timestamp;P1;durP1;ratioP1;P2;durP2;ratioP2
56171;SDS011;42052;41.634;-0.946;2023-09-08T00:01:58;3.70;;;1.98;;
56171;SDS011;42052;41.634;-0.946;2023-09-08T00:04:24;2.92;;;2.00;;
56171;SDS011;42052;41.634;-0.946;2023-09-08T00:06:49;4.53;;;2.30;;
56171;SDS011;42052;41.634;-0.946;2023-09-08T00:09:15;3.33;;;2.10;;
56171;SDS011;42052;41.634;-0.946;2023-09-08T00:11:41;4.20;;;2.10;;
56171;SDS011;42052;41.634;-0.946;2023-09-08T00:14:07;4.22;;;2.20;;
56171;SDS011;42052;41.634;-0.946;2023-09-08T00:16:33;3.38;;;2.08;;
56171;SDS011;42052;41.634;-0.946;2023-09-08T00:18:59;5.82;;;2.38;;
56171;SDS011;42052;41.634;-0.946;2023-09-08T00:21:25;4.10;;;2.28;;
56171;SDS011;42052;41.634;-0.946;2023-09-08T00:23:51;5.32;;;2.22;;
56171;SDS011;42052;41.634;-0.946;2023-09-08T00:26:17;4.53;;;2.20;;
56171;SDS011;42052;41.634;-0.946;2023-09-08T00:28:43;3.85;;;2.10;;
56171;SDS011;42052;41.634;-0.946;2023-09-08T00:31:09;3.33;;;2.10;;
56171;SDS011;42052;41.634;-0.946;2023-09-08T00:33:35;3.45;;;2.30;;
56171;SDS011;42052;41.634;-0.946;2023-09-08T00:36:01;4.28;;;2.13;;
56171;SDS011;42052;41.634;-0.946;2023-09-08T00:38:26;3.03;;;2.08;;
56171;SDS011;42052;41.634;-0.946;2023-09-08T00:40:52;3.15;;;2.10;;
56171;SDS011;42052;41.634;-0.946;2023-09-08T00:43:18;4.00;;;2.10;;
56171;SDS011;42052;41.634;-0.946;2023-09-08T00:45:44;2.67;;;2.20;;
56171;SDS011;42052;41.634;-0.946;2023-09-08T00:48:11;3.28;;;2.30;;
56171;SDS011;42052;41.634;-0.946;2023-09-08T00:50:38;3.72;;;2.20;;
56171;SDS011;42052;41.634;-0.946;2023-09-08T00:53:05;2.35;;;1.88;;
56171;SDS011;42052;41.634;-0.946;2023-09-08T00:55:31;3.53;;;2.13;;
56171;SDS011;42052;41.634;-0.946;2023-09-08T00:57:58;3.58;;;2.30;;
56171;SDS011;42052;41.634;-0.946;2023-09-08T01:00:25;3.45;;;2.10;;
56171;SDS011;42052;41.634;-0.946;2023-09-08T01:02:51;2.10;;;1.90;;
56171;SDS011;42052;41.634;-0.946;2023-09-08T01:05:17;2.45;;;2.10;;
56171;SDS011;42052;41.634;-0.946;2023-09-08T01:07:43;2.30;;;2.10;;
56171;SDS011;42052;41.634;-0.946;2023-09-08T01:10:10;3.03;;;2.20;;
56171;SDS011;42052;41.634;-0.946;2023-09-08T01:12:36;3.20;;;2.00;;
56171;SDS011;42052;41.634;-0.946;2023-09-08T01:15:02;2.75;;;2.03;;
56171;SDS011;42052;41.634;-0.946;2023-09-08T01:17:30;5.13;;;2.25;;
56171;SDS011;42052;41.634;-0.946;2023-09-08T01:19:56;3.50;;;2.15;;
56171;SDS011;42052;41.634;-0.946;2023-09-08T01:38:52;2.30;;;1.90;;
56171;SDS011;42052;41.634;-0.946;2023-09-08T01:41:18;3.88;;;2.03;;
56171;SDS011;42052;41.634;-0.946;2023-09-08T01:43:43;3.63;;;1.90;;
56171;SDS011;42052;41.634;-0.946;2023-09-08T01:46:09;2.70;;;2.00;;
56171;SDS011;42052;41.634;-0.946;2023-09-08T01:48:35;2.92;;;2.10;;
56171;SDS011;42052;41.634;-0.946;2023-09-08T01:51:00;3.88;;;2.20;;
56171;SDS011;42052;41.634;-0.946;2023-09-08T01:53:26;3.50;;;2.00;;
56171;SDS011;42052;41.634;-0.946;2023-09-08T01:55:52;4.60;;;2.03;;
56171;SDS011;42052;41.634;-0.946;2023-09-08T01:58:17;2.63;;;1.92;;
56171;SDS011;42052;41.634;-0.946;2023-09-08T02:00:47;2.63;;;1.95;;
56171;SDS011;42052;41.634;-0.946;2023-09-08T02:03:14;3.17;;;2.20;;
56171;SDS011;42052;41.634;-0.946;2023-09-08T02:05:41;3.65;;;2.00;;
56171;SDS011;42052;41.634;-0.946;2023-09-08T02:08:07;4.85;;;2.40;;
56171;SDS011;42052;41.634;-0.946;2023-09-08T02:10:32;3.75;;;2.15;;
56171;SDS011;42052;41.634;-0.946;2023-09-08T02:12:58;4.68;;;2.22;;
56171;SDS011;42052;41.634;-0.946;2023-09-08T02:15:24;5.43;;;2.20;;
56171;SDS011;42052;41.634;-0.946;2023-09-08T02:17:52;2.30;;;2.10;;
56171;SDS011;42052;41.634;-0.946;2023-09-08T02:20:19;3.80;;;2.17;;
56171;SDS011;42052;41.634;-0.946;2023-09-08T02:22:45;3.03;;;2.17;;
56171;SDS011;42052;41.634;-0.946;2023-09-08T02:25:13;3.17;;;2.10;;
56171;SDS011;42052;41.634;-0.946;2023-09-08T02:27:39;4.72;;;2.00;;
56171;SDS011;42052;41.634;-0.946;2023-09-08T02:30:04;3.17;;;2.40;;
56171;SDS011;42052;41.634;-0.946;2023-09-08T02:32:31;3.10;;;1.90;;
56171;SDS011;42052;41.634;-0.946;2023-09-08T02:34:57;2.78;;;2.20;;
56171;SDS011;42052;41.634;-0.946;2023-09-08T02:37:22;4.47;;;2.25;;
56171;SDS011;42052;41.634;-0.946;2023-09-08T02:39:48;4.00;;;2.15;;
56171;SDS011;42052;41.634;-0.946;2023-09-08T02:42:14;3.08;;;2.20;;
56171;SDS011;42052;41.634;-0.946;2023-09-08T02:44:40;4.10;;;1.92;;
56171;SDS011;42052;41.634;-0.946;2023-09-08T02:47:06;4.03;;;2.20;;
56171;SDS011;42052;41.634;-0.946;2023-09-08T02:49:32;3.33;;;2.20;;
56171;SDS011;42052;41.634;-0.946;2023-09-08T02:51:58;3.03;;;2.30;;
56171;SDS011;42052;41.634;-0.946;2023-09-08T02:54:24;2.13;;;1.92;;
56171;SDS011;42052;41.634;-0.946;2023-09-08T02:56:49;3.15;;;2.20;;
56171;SDS011;42052;41.634;-0.946;2023-09-08T02:59:15;3.83;;;2.30;;
56171;SDS011;42052;41.634;-0.946;2023-09-08T03:01:41;2.42;;;2.00;;
56171;SDS011;42052;41.634;-0.946;2023-09-08T03:04:07;2.88;;;2.10;;
56171;SDS011;42052;41.634;-0.946;2023-09-08T03:06:34;2.85;;;2.10;;
56171;SDS011;42052;41.634;-0.946;2023-09-08T03:09:00;3.08;;;2.03;;
56171;SDS011;42052;41.634;-0.946;2023-09-08T03:11:25;3.13;;;2.30;;
56171;SDS011;42052;41.634;-0.946;2023-09-08T03:13:51;2.67;;;2.10;;
56171;SDS011;42052;41.634;-0.946;2023-09-08T03:16:17;5.25;;;2.50;;
56171;SDS011;42052;41.634;-0.946;2023-09-08T03:18:43;3.47;;;2.20;;
56171;SDS011;42052;41.634;-0.946;2023-09-08T03:21:08;5.65;;;2.17;;
56171;SDS011;42052;41.634;-0.946;2023-09-08T03:23:38;3.42;;;2.13;;
56171;SDS011;42052;41.634;-0.946;2023-09-08T03:26:04;2.63;;;2.38;;
56171;SDS011;42052;41.634;-0.946;2023-09-08T03:28:31;4.05;;;2.05;;
56171;SDS011;42052;41.634;-0.946;2023-09-08T03:30:58;4.80;;;2.20;;
56171;SDS011;42052;41.634;-0.946;2023-09-08T03:33:24;3.78;;;2.38;;
56171;SDS011;42052;41.634;-0.946;2023-09-08T03:35:49;2.95;;;2.10;;
56171;SDS011;42052;41.634;-0.946;2023-09-08T03:38:15;5.30;;;2.17;;
56171;SDS011;42052;41.634;-0.946;2023-09-08T03:40:41;3.55;;;2.00;;
56171;SDS011;42052;41.634;-0.946;2023-09-08T03:43:07;2.38;;;1.95;;
56171;SDS011;42052;41.634;-0.946;2023-09-08T03:45:33;4.18;;;2.15;;
56171;SDS011;42052;41.634;-0.946;2023-09-08T03:47:59;4.68;;;2.15;;
56171;SDS011;42052;41.634;-0.946;2023-09-08T03:50:25;3.95;;;2.33;;
56171;SDS011;42052;41.634;-0.946;2023-09-08T03:52:51;2.90;;;2.15;;
56171;SDS011;42052;41.634;-0.946;2023-09-08T03:55:18;3.10;;;2.10;;
56171;SDS011;42052;41.634;-0.946;2023-09-08T03:57:44;3.83;;;2.35;;
56171;SDS011;42052;41.634;-0.946;2023-09-08T04:00:10;4.07;;;2.03;;
56171;SDS011;42052;41.634;-0.946;2023-09-08T04:02:37;3.20;;;2.20;;
56171;SDS011;42052;41.634;-0.946;2023-09-08T04:05:02;4.63;;;2.22;;
56171;SDS011;42052;41.634;-0.946;2023-09-08T04:07:29;4.38;;;2.58;;
56171;SDS011;42052;41.634;-0.946;2023-09-08T04:09:54;4.13;;;2.45;;
56171;SDS011;42052;41.634;-0.946;2023-09-08T04:12:21;4.68;;;2.50;;
56171;SDS011;42052;41.634;-0.946;2023-09-08T04:14:47;3.88;;;2.50;;
56171;SDS011;42052;41.634;-0.946;2023-09-08T04:17:14;6.15;;;2.50;;
56171;SDS011;42052;41.634;-0.946;2023-09-08T04:19:39;3.63;;;2.40;;
56171;SDS011;42052;41.634;-0.946;2023-09-08T04:22:05;4.35;;;2.30;;
56171;SDS011;42052;41.634;-0.946;2023-09-08T04:24:34;3.83;;;2.35;;
56171;SDS011;42052;41.634;-0.946;2023-09-08T04:27:01;3.45;;;2.55;;
56171;SDS011;42052;41.634;-0.946;2023-09-08T04:29:27;4.10;;;2.40;;
56171;SDS011;42052;41.634;-0.946;2023-09-08T04:31:52;3.80;;;2.55;;
56171;SDS011;42052;41.634;-0.946;2023-09-08T04:34:18;3.60;;;2.30;;
56171;SDS011;42052;41.634;-0.946;2023-09-08T04:36:44;2.88;;;2.30;;
56171;SDS011;42052;41.634;-0.946;2023-09-08T04:39:09;3.83;;;2.40;;
56171;SDS011;42052;41.634;-0.946;2023-09-08T04:41:36;3.25;;;2.30;;
56171;SDS011;42052;41.634;-0.946;2023-09-08T04:44:03;3.35;;;2.45;;
56171;SDS011;42052;41.634;-0.946;2023-09-08T04:46:29;2.58;;;2.20;;
56171;SDS011;42052;41.634;-0.946;2023-09-08T04:48:55;3.40;;;2.10;;
56171;SDS011;42052;41.634;-0.946;2023-09-08T04:51:21;3.88;;;2.50;;
56171;SDS011;42052;41.634;-0.946;2023-09-08T04:53:47;4.00;;;2.67;;
56171;SDS011;42052;41.634;-0.946;2023-09-08T04:56:18;4.28;;;2.55;;
56171;SDS011;42052;41.634;-0.946;2023-09-08T04:58:43;2.97;;;2.45;;
56171;SDS011;42052;41.634;-0.946;2023-09-08T05:01:09;5.03;;;2.50;;
56171;SDS011;42052;41.634;-0.946;2023-09-08T05:03:35;7.60;;;2.72;;
56171;SDS011;42052;41.634;-0.946;2023-09-08T05:06:01;4.90;;;2.50;;
56171;SDS011;42052;41.634;-0.946;2023-09-08T05:08:26;4.25;;;2.22;;
56171;SDS011;42052;41.634;-0.946;2023-09-08T05:10:53;4.47;;;2.42;;
56171;SDS011;42052;41.634;-0.946;2023-09-08T05:13:18;3.50;;;2.42;;
56171;SDS011;42052;41.634;-0.946;2023-09-08T05:15:48;5.60;;;2.85;;
56171;SDS011;42052;41.634;-0.946;2023-09-08T05:18:13;3.85;;;2.72;;
56171;SDS011;42052;41.634;-0.946;2023-09-08T05:20:39;4.07;;;2.83;;
56171;SDS011;42052;41.634;-0.946;2023-09-08T05:23:05;3.92;;;2.58;;
56171;SDS011;42052;41.634;-0.946;2023-09-08T05:25:31;4.13;;;2.90;;
56171;SDS011;42052;41.634;-0.946;2023-09-08T05:27:56;6.32;;;2.65;;
56171;SDS011;42052;41.634;-0.946;2023-09-08T05:30:22;4.70;;;2.80;;
56171;SDS011;42052;41.634;-0.946;2023-09-08T05:32:48;5.03;;;2.67;;
56171;SDS011;42052;41.634;-0.946;2023-09-08T05:35:16;4.82;;;2.72;;
56171;SDS011;42052;41.634;-0.946;2023-09-08T05:37:41;4.15;;;2.95;;
56171;SDS011;42052;41.634;-0.946;2023-09-08T05:40:07;4.18;;;2.55;;
56171;SDS011;42052;41.634;-0.946;2023-09-08T05:42:33;5.97;;;3.00;;
56171;SDS011;42052;41.634;-0.946;2023-09-08T05:44:59;6.25;;;2.95;;
56171;SDS011;42052;41.634;-0.946;2023-09-08T05:47:25;4.55;;;2.95;;
56171;SDS011;42052;41.634;-0.946;2023-09-08T05:49:50;6.47;;;3.10;;
56171;SDS011;42052;41.634;-0.946;2023-09-08T05:52:18;7.93;;;3.60;;
56171;SDS011;42052;41.634;-0.946;2023-09-08T05:54:44;13.38;;;4.72;;
56171;SDS011;42052;41.634;-0.946;2023-09-08T05:57:10;21.33;;;5.20;;
56171;SDS011;42052;41.634;-0.946;2023-09-08T05:59:36;25.08;;;5.38;;
56171;SDS011;42052;41.634;-0.946;2023-09-08T06:02:01;16.27;;;4.85;;
56171;SDS011;42052;41.634;-0.946;2023-09-08T06:04:27;26.63;;;5.78;;
56171;SDS011;42052;41.634;-0.946;2023-09-08T06:06:53;19.15;;;5.82;;
56171;SDS011;42052;41.634;-0.946;2023-09-08T06:09:19;22.83;;;5.88;;
56171;SDS011;42052;41.634;-0.946;2023-09-08T06:11:45;24.02;;;6.20;;
56171;SDS011;42052;41.634;-0.946;2023-09-08T06:14:11;17.13;;;5.13;;
56171;SDS011;42052;41.634;-0.946;2023-09-08T06:16:37;21.50;;;5.55;;
56171;SDS011;42052;41.634;-0.946;2023-09-08T06:19:02;17.88;;;5.10;;
56171;SDS011;42052;41.634;-0.946;2023-09-08T06:21:28;17.20;;;5.30;;
56171;SDS011;42052;41.634;-0.946;2023-09-08T06:23:54;18.15;;;5.80;;
56171;SDS011;42052;41.634;-0.946;2023-09-08T06:26:20;18.70;;;5.50;;
56171;SDS011;42052;41.634;-0.946;2023-09-08T06:28:46;16.90;;;5.72;;
56171;SDS011;42052;41.634;-0.946;2023-09-08T06:31:11;14.27;;;5.68;;
56171;SDS011;42052;41.634;-0.946;2023-09-08T06:33:39;20.83;;;5.40;;
56171;SDS011;42052;41.634;-0.946;2023-09-08T06:36:05;16.05;;;5.60;;
56171;SDS011;42052;41.634;-0.946;2023-09-08T06:38:32;13.73;;;5.03;;
56171;SDS011;42052;41.634;-0.946;2023-09-08T06:40:58;15.90;;;5.60;;
56171;SDS011;42052;41.634;-0.946;2023-09-08T06:43:24;15.80;;;5.43;;
56171;SDS011;42052;41.634;-0.946;2023-09-08T06:45:49;18.60;;;5.82;;
56171;SDS011;42052;41.634;-0.946;2023-09-08T06:48:15;12.70;;;5.03;;
56171;SDS011;42052;41.634;-0.946;2023-09-08T06:50:41;17.90;;;5.72;;
56171;SDS011;42052;41.634;-0.946;2023-09-08T06:53:07;15.10;;;5.55;;
56171;SDS011;42052;41.634;-0.946;2023-09-08T06:55:33;17.02;;;5.78;;
56171;SDS011;42052;41.634;-0.946;2023-09-08T06:57:59;13.65;;;4.93;;
56171;SDS011;42052;41.634;-0.946;2023-09-08T07:00:28;14.85;;;5.00;;
56171;SDS011;42052;41.634;-0.946;2023-09-08T07:02:53;13.57;;;5.30;;
56171;SDS011;42052;41.634;-0.946;2023-09-08T07:05:19;15.95;;;5.60;;
56171;SDS011;42052;41.634;-0.946;2023-09-08T07:07:45;14.73;;;5.15;;
56171;SDS011;42052;41.634;-0.946;2023-09-08T07:10:10;17.08;;;5.38;;
56171;SDS011;42052;41.634;-0.946;2023-09-08T07:12:37;14.63;;;5.25;;
56171;SDS011;42052;41.634;-0.946;2023-09-08T07:15:03;19.40;;;5.30;;
56171;SDS011;42052;41.634;-0.946;2023-09-08T07:17:29;12.32;;;5.18;;
56171;SDS011;42052;41.634;-0.946;2023-09-08T07:19:55;14.63;;;5.15;;
56171;SDS011;42052;41.634;-0.946;2023-09-08T07:22:21;14.65;;;5.50;;
56171;SDS011;42052;41.634;-0.946;2023-09-08T07:24:47;15.38;;;5.10;;
56171;SDS011;42052;41.634;-0.946;2023-09-08T07:27:12;14.82;;;5.00;;
56171;SDS011;42052;41.634;-0.946;2023-09-08T07:29:39;16.38;;;5.28;;
56171;SDS011;42052;41.634;-0.946;2023-09-08T07:32:06;14.20;;;4.90;;
56171;SDS011;42052;41.634;-0.946;2023-09-08T07:34:32;12.65;;;5.00;;
56171;SDS011;42052;41.634;-0.946;2023-09-08T07:36:59;15.85;;;4.90;;
56171;SDS011;42052;41.634;-0.946;2023-09-08T07:39:25;13.35;;;4.70;;
56171;SDS011;42052;41.634;-0.946;2023-09-08T07:41:51;14.00;;;4.80;;
56171;SDS011;42052;41.634;-0.946;2023-09-08T07:44:18;11.05;;;4.45;;
56171;SDS011;42052;41.634;-0.946;2023-09-08T07:46:44;15.13;;;4.85;;
56171;SDS011;42052;41.634;-0.946;2023-09-08T07:49:11;14.57;;;5.10;;
56171;SDS011;42052;41.634;-0.946;2023-09-08T07:51:37;11.27;;;4.60;;
56171;SDS011;42052;41.634;-0.946;2023-09-08T07:54:03;10.80;;;4.55;;
56171;SDS011;42052;41.634;-0.946;2023-09-08T07:56:29;11.43;;;4.43;;
56171;SDS011;42052;41.634;-0.946;2023-09-08T07:58:55;13.63;;;4.47;;
56171;SDS011;42052;41.634;-0.946;2023-09-08T08:01:21;10.38;;;4.30;;
56171;SDS011;42052;41.634;-0.946;2023-09-08T08:03:47;8.55;;;4.13;;
56171;SDS011;42052;41.634;-0.946;2023-09-08T08:06:12;9.80;;;4.07;;
56171;SDS011;42052;41.634;-0.946;2023-09-08T08:08:38;9.10;;;4.50;;
56171;SDS011;42052;41.634;-0.946;2023-09-08T08:11:12;11.00;;;4.68;;
56171;SDS011;42052;41.634;-0.946;2023-09-08T08:13:40;11.25;;;4.03;;
56171;SDS011;42052;41.634;-0.946;2023-09-08T08:16:06;9.75;;;4.40;;
56171;SDS011;42052;41.634;-0.946;2023-09-08T08:18:32;9.02;;;4.20;;
56171;SDS011;42052;41.634;-0.946;2023-09-08T08:20:58;9.38;;;4.32;;
56171;SDS011;42052;41.634;-0.946;2023-09-08T08:23:25;9.20;;;4.05;;
56171;SDS011;42052;41.634;-0.946;2023-09-08T08:25:52;10.27;;;4.57;;
56171;SDS011;42052;41.634;-0.946;2023-09-08T08:28:18;7.53;;;3.83;;
56171;SDS011;42052;41.634;-0.946;2023-09-08T08:30:43;9.35;;;4.00;;
56171;SDS011;42052;41.634;-0.946;2023-09-08T08:33:09;8.15;;;3.80;;
56171;SDS011;42052;41.634;-0.946;2023-09-08T08:35:36;13.90;;;4.00;;
56171;SDS011;42052;41.634;-0.946;2023-09-08T08:38:01;8.82;;;3.90;;
56171;SDS011;42052;41.634;-0.946;2023-09-08T08:40:27;8.52;;;3.85;;
56171;SDS011;42052;41.634;-0.946;2023-09-08T08:42:56;9.52;;;3.90;;
56171;SDS011;42052;41.634;-0.946;2023-09-08T08:45:26;9.55;;;3.88;;
56171;SDS011;42052;41.634;-0.946;2023-09-08T08:47:55;8.70;;;4.07;;
56171;SDS011;42052;41.634;-0.946;2023-09-08T08:50:23;7.60;;;3.63;;
56171;SDS011;42052;41.634;-0.946;2023-09-08T08:52:49;6.78;;;4.10;;
56171;SDS011;42052;41.634;-0.946;2023-09-08T08:55:16;6.68;;;3.72;;
56171;SDS011;42052;41.634;-0.946;2023-09-08T08:57:42;9.13;;;3.40;;
56171;SDS011;42052;41.634;-0.946;2023-09-08T09:00:10;6.95;;;3.78;;
56171;SDS011;42052;41.634;-0.946;2023-09-08T09:02:40;8.10;;;4.10;;
56171;SDS011;42052;41.634;-0.946;2023-09-08T09:05:11;6.88;;;3.65;;
56171;SDS011;42052;41.634;-0.946;2023-09-08T09:07:43;8.43;;;3.83;;
56171;SDS011;42052;41.634;-0.946;2023-09-08T09:10:09;9.10;;;3.38;;
56171;SDS011;42052;41.634;-0.946;2023-09-08T09:12:38;6.80;;;3.30;;
56171;SDS011;42052;41.634;-0.946;2023-09-08T09:15:05;7.10;;;3.40;;
56171;SDS011;42052;41.634;-0.946;2023-09-08T09:17:34;6.03;;;3.55;;
56171;SDS011;42052;41.634;-0.946;2023-09-08T09:22:40;6.35;;;3.42;;
56171;SDS011;42052;41.634;-0.946;2023-09-08T09:25:06;6.13;;;3.17;;
56171;SDS011;42052;41.634;-0.946;2023-09-08T09:27:33;5.72;;;3.15;;
56171;SDS011;42052;41.634;-0.946;2023-09-08T09:30:02;6.43;;;3.33;;
56171;SDS011;42052;41.634;-0.946;2023-09-08T09:32:29;8.73;;;3.53;;
56171;SDS011;42052;41.634;-0.946;2023-09-08T09:34:57;6.15;;;3.20;;
56171;SDS011;42052;41.634;-0.946;2023-09-08T09:37:26;8.40;;;3.80;;
56171;SDS011;42052;41.634;-0.946;2023-09-08T09:39:52;6.20;;;3.50;;
56171;SDS011;42052;41.634;-0.946;2023-09-08T09:42:20;7.28;;;3.20;;
56171;SDS011;42052;41.634;-0.946;2023-09-08T09:44:52;7.38;;;3.33;;
56171;SDS011;42052;41.634;-0.946;2023-09-08T09:47:18;6.50;;;3.45;;
56171;SDS011;42052;41.634;-0.946;2023-09-08T09:49:45;5.50;;;3.22;;
56171;SDS011;42052;41.634;-0.946;2023-09-08T09:52:12;8.02;;;3.40;;
56171;SDS011;42052;41.634;-0.946;2023-09-08T09:54:42;5.43;;;3.03;;
56171;SDS011;42052;41.634;-0.946;2023-09-08T09:57:12;4.90;;;2.88;;
56171;SDS011;42052;41.634;-0.946;2023-09-08T09:59:42;5.50;;;3.35;;
56171;SDS011;42052;41.634;-0.946;2023-09-08T10:02:09;4.75;;;3.03;;
56171;SDS011;42052;41.634;-0.946;2023-09-08T10:04:38;5.32;;;3.20;;
56171;SDS011;42052;41.634;-0.946;2023-09-08T10:07:06;6.45;;;3.50;;
56171;SDS011;42052;41.634;-0.946;2023-09-08T10:09:32;6.93;;;3.35;;
56171;SDS011;42052;41.634;-0.946;2023-09-08T10:11:59;4.40;;;2.97;;
56171;SDS011;42052;41.634;-0.946;2023-09-08T10:14:32;7.18;;;3.10;;
56171;SDS011;42052;41.634;-0.946;2023-09-08T10:17:01;5.20;;;3.10;;
56171;SDS011;42052;41.634;-0.946;2023-09-08T10:19:28;6.20;;;3.05;;
56171;SDS011;42052;41.634;-0.946;2023-09-08T10:21:55;6.13;;;3.05;;
56171;SDS011;42052;41.634;-0.946;2023-09-08T10:24:28;6.10;;;3.30;;
56171;SDS011;42052;41.634;-0.946;2023-09-08T10:29:37;6.13;;;3.33;;
56171;SDS011;42052;41.634;-0.946;2023-09-08T10:32:05;5.03;;;2.83;;
56171;SDS011;42052;41.634;-0.946;2023-09-08T10:34:33;4.55;;;3.00;;
56171;SDS011;42052;41.634;-0.946;2023-09-08T10:37:00;5.82;;;3.13;;
56171;SDS011;42052;41.634;-0.946;2023-09-08T10:39:31;4.90;;;2.90;;
56171;SDS011;42052;41.634;-0.946;2023-09-08T10:44:44;4.80;;;2.92;;
56171;SDS011;42052;41.634;-0.946;2023-09-08T10:47:14;5.97;;;3.03;;
56171;SDS011;42052;41.634;-0.946;2023-09-08T10:49:44;5.07;;;2.90;;
56171;SDS011;42052;41.634;-0.946;2023-09-08T10:52:11;4.80;;;2.88;;
56171;SDS011;42052;41.634;-0.946;2023-09-08T10:54:44;5.45;;;3.05;;
56171;SDS011;42052;41.634;-0.946;2023-09-08T10:57:13;4.70;;;2.97;;
56171;SDS011;42052;41.634;-0.946;2023-09-08T10:59:56;5.50;;;2.88;;
56171;SDS011;42052;41.634;-0.946;2023-09-08T11:05:09;6.85;;;3.00;;
56171;SDS011;42052;41.634;-0.946;2023-09-08T11:07:36;4.93;;;2.63;;
56171;SDS011;42052;41.634;-0.946;2023-09-08T11:10:03;4.63;;;3.13;;
56171;SDS011;42052;41.634;-0.946;2023-09-08T11:12:30;4.45;;;2.60;;
56171;SDS011;42052;41.634;-0.946;2023-09-08T11:14:59;5.95;;;2.78;;
56171;SDS011;42052;41.634;-0.946;2023-09-08T11:17:37;4.97;;;2.88;;
56171;SDS011;42052;41.634;-0.946;2023-09-08T11:20:07;4.47;;;2.58;;
56171;SDS011;42052;41.634;-0.946;2023-09-08T11:22:38;4.63;;;2.80;;
56171;SDS011;42052;41.634;-0.946;2023-09-08T11:25:08;3.33;;;2.47;;
56171;SDS011;42052;41.634;-0.946;2023-09-08T11:27:36;4.80;;;2.90;;
56171;SDS011;42052;41.634;-0.946;2023-09-08T11:30:02;4.10;;;2.67;;
56171;SDS011;42052;41.634;-0.946;2023-09-08T11:32:33;3.75;;;2.63;;
56171;SDS011;42052;41.634;-0.946;2023-09-08T11:35:05;3.67;;;2.60;;
56171;SDS011;42052;41.634;-0.946;2023-09-08T11:37:37;4.63;;;2.33;;
56171;SDS011;42052;41.634;-0.946;2023-09-08T11:40:04;4.30;;;2.80;;
56171;SDS011;42052;41.634;-0.946;2023-09-08T11:42:35;4.38;;;2.53;;
56171;SDS011;42052;41.634;-0.946;2023-09-08T11:45:01;4.30;;;2.53;;
56171;SDS011;42052;41.634;-0.946;2023-09-08T11:47:29;4.75;;;2.70;;
56171;SDS011;42052;41.634;-0.946;2023-09-08T11:49:56;3.70;;;2.60;;
56171;SDS011;42052;41.634;-0.946;2023-09-08T11:52:23;3.40;;;2.55;;
56171;SDS011;42052;41.634;-0.946;2023-09-08T11:54:49;3.40;;;2.35;;
56171;SDS011;42052;41.634;-0.946;2023-09-08T11:57:16;3.80;;;2.72;;
56171;SDS011;42052;41.634;-0.946;2023-09-08T11:59:43;4.88;;;2.70;;
56171;SDS011;42052;41.634;-0.946;2023-09-08T12:02:13;3.75;;;2.40;;
56171;SDS011;42052;41.634;-0.946;2023-09-08T12:04:39;4.03;;;2.38;;
56171;SDS011;42052;41.634;-0.946;2023-09-08T12:07:07;4.38;;;2.55;;
56171;SDS011;42052;41.634;-0.946;2023-09-08T12:09:42;3.33;;;2.30;;
56171;SDS011;42052;41.634;-0.946;2023-09-08T12:12:12;3.67;;;2.38;;
56171;SDS011;42052;41.634;-0.946;2023-09-08T12:14:41;3.60;;;2.50;;
56171;SDS011;42052;41.634;-0.946;2023-09-08T12:17:09;3.88;;;2.30;;
56171;SDS011;42052;41.634;-0.946;2023-09-08T12:19:35;4.72;;;2.63;;
56171;SDS011;42052;41.634;-0.946;2023-09-08T12:22:04;4.35;;;2.60;;
56171;SDS011;42052;41.634;-0.946;2023-09-08T12:27:20;4.85;;;2.63;;
56171;SDS011;42052;41.634;-0.946;2023-09-08T12:29:52;2.75;;;2.30;;
56171;SDS011;42052;41.634;-0.946;2023-09-08T12:32:19;3.45;;;2.42;;
56171;SDS011;42052;41.634;-0.946;2023-09-08T12:34:46;3.53;;;2.38;;
56171;SDS011;42052;41.634;-0.946;2023-09-08T12:37:12;4.53;;;2.40;;
56171;SDS011;42052;41.634;-0.946;2023-09-08T12:39:40;4.10;;;2.45;;
56171;SDS011;42052;41.634;-0.946;2023-09-08T12:42:06;3.55;;;2.40;;
56171;SDS011;42052;41.634;-0.946;2023-09-08T12:44:32;3.08;;;2.47;;
56171;SDS011;42052;41.634;-0.946;2023-09-08T12:46:58;3.88;;;2.47;;
56171;SDS011;42052;41.634;-0.946;2023-09-08T12:49:23;3.67;;;2.42;;
56171;SDS011;42052;41.634;-0.946;2023-09-08T12:51:49;2.63;;;2.15;;
56171;SDS011;42052;41.634;-0.946;2023-09-08T12:54:15;3.05;;;2.42;;
56171;SDS011;42052;41.634;-0.946;2023-09-08T12:56:42;3.78;;;2.58;;
56171;SDS011;42052;41.634;-0.946;2023-09-08T12:59:08;3.25;;;2.35;;
56171;SDS011;42052;41.634;-0.946;2023-09-08T13:01:34;3.25;;;2.40;;
56171;SDS011;42052;41.634;-0.946;2023-09-08T13:04:00;3.95;;;2.30;;
56171;SDS011;42052;41.634;-0.946;2023-09-08T13:06:26;2.78;;;2.15;;
56171;SDS011;42052;41.634;-0.946;2023-09-08T13:08:52;5.82;;;2.85;;
56171;SDS011;42052;41.634;-0.946;2023-09-08T13:11:18;3.78;;;2.35;;
56171;SDS011;42052;41.634;-0.946;2023-09-08T13:13:44;2.78;;;2.28;;
56171;SDS011;42052;41.634;-0.946;2023-09-08T13:16:09;5.55;;;2.40;;
56171;SDS011;42052;41.634;-0.946;2023-09-08T13:18:35;3.15;;;2.20;;
56171;SDS011;42052;41.634;-0.946;2023-09-08T13:21:04;5.47;;;2.33;;
56171;SDS011;42052;41.634;-0.946;2023-09-08T13:23:30;3.25;;;2.25;;
56171;SDS011;42052;41.634;-0.946;2023-09-08T13:25:55;5.25;;;2.33;;
56171;SDS011;42052;41.634;-0.946;2023-09-08T13:28:21;2.88;;;2.20;;
56171;SDS011;42052;41.634;-0.946;2023-09-08T13:30:49;7.97;;;2.35;;
56171;SDS011;42052;41.634;-0.946;2023-09-08T13:33:15;2.67;;;1.90;;
56171;SDS011;42052;41.634;-0.946;2023-09-08T13:35:40;4.13;;;2.03;;
56171;SDS011;42052;41.634;-0.946;2023-09-08T13:38:06;3.55;;;2.30;;
56171;SDS011;42052;41.634;-0.946;2023-09-08T13:40:32;3.67;;;2.38;;
56171;SDS011;42052;41.634;-0.946;2023-09-08T13:42:58;3.30;;;2.20;;
56171;SDS011;42052;41.634;-0.946;2023-09-08T13:45:23;4.75;;;2.05;;
56171;SDS011;42052;41.634;-0.946;2023-09-08T13:47:49;3.42;;;1.95;;
56171;SDS011;42052;41.634;-0.946;2023-09-08T13:50:17;2.97;;;2.20;;
56171;SDS011;42052;41.634;-0.946;2023-09-08T13:52:43;2.63;;;2.05;;
56171;SDS011;42052;41.634;-0.946;2023-09-08T13:55:09;3.17;;;2.10;;
56171;SDS011;42052;41.634;-0.946;2023-09-08T13:57:35;3.10;;;2.10;;
56171;SDS011;42052;41.634;-0.946;2023-09-08T14:00:02;3.55;;;2.10;;
56171;SDS011;42052;41.634;-0.946;2023-09-08T14:02:28;5.55;;;2.33;;
56171;SDS011;42052;41.634;-0.946;2023-09-08T14:04:54;2.83;;;2.20;;
56171;SDS011;42052;41.634;-0.946;2023-09-08T14:07:20;2.28;;;1.88;;
56171;SDS011;42052;41.634;-0.946;2023-09-08T14:09:46;3.92;;;2.13;;
56171;SDS011;42052;41.634;-0.946;2023-09-08T14:12:12;3.53;;;2.20;;
56171;SDS011;42052;41.634;-0.946;2023-09-08T14:14:37;2.83;;;2.10;;
56171;SDS011;42052;41.634;-0.946;2023-09-08T14:17:03;3.20;;;2.20;;
56171;SDS011;42052;41.634;-0.946;2023-09-08T14:19:29;3.53;;;1.90;;
56171;SDS011;42052;41.634;-0.946;2023-09-08T14:21:55;3.38;;;2.30;;
56171;SDS011;42052;41.634;-0.946;2023-09-08T14:24:21;2.83;;;1.90;;
56171;SDS011;42052;41.634;-0.946;2023-09-08T14:26:48;2.45;;;1.90;;
56171;SDS011;42052;41.634;-0.946;2023-09-08T14:29:14;2.63;;;2.13;;
56171;SDS011;42052;41.634;-0.946;2023-09-08T14:31:39;2.90;;;1.95;;
56171;SDS011;42052;41.634;-0.946;2023-09-08T14:34:06;3.40;;;2.10;;
56171;SDS011;42052;41.634;-0.946;2023-09-08T14:36:32;3.47;;;2.25;;
56171;SDS011;42052;41.634;-0.946;2023-09-08T14:38:58;2.67;;;2.00;;
56171;SDS011;42052;41.634;-0.946;2023-09-08T14:41:23;3.13;;;2.15;;
56171;SDS011;42052;41.634;-0.946;2023-09-08T14:43:49;3.22;;;2.03;;
56171;SDS011;42052;41.634;-0.946;2023-09-08T14:46:15;2.58;;;1.80;;
56171;SDS011;42052;41.634;-0.946;2023-09-08T14:48:41;3.28;;;2.10;;
56171;SDS011;42052;41.634;-0.946;2023-09-08T14:51:07;3.20;;;2.20;;
56171;SDS011;42052;41.634;-0.946;2023-09-08T14:53:32;3.10;;;2.08;;
56171;SDS011;42052;41.634;-0.946;2023-09-08T14:55:58;2.40;;;1.92;;
56171;SDS011;42052;41.634;-0.946;2023-09-08T14:58:24;3.10;;;1.95;;
56171;SDS011;42052;41.634;-0.946;2023-09-08T15:00:51;3.00;;;1.90;;